createdAt,value
2022-11-26T00:02:30.160Z,0.90
2022-11-26T00:04:58.747Z,0.80
2022-11-26T00:07:28.361Z,0.80
2022-11-26T00:09:56.294Z,0.90
2022-11-26T00:12:29.294Z,1.00
2022-11-26T00:14:56.652Z,1.00
2022-11-26T00:17:23.513Z,1.00
2022-11-26T00:19:51.878Z,1.10
2022-11-26T00:22:30.811Z,1.30
2022-11-26T00:24:58.162Z,1.40
2022-11-26T00:27:27.410Z,1.60
2022-11-26T00:29:55.380Z,1.70
2022-11-26T00:32:26.415Z,1.70
2022-11-26T00:34:53.723Z,1.70
2022-11-26T00:37:33.845Z,1.70
2022-11-26T00:40:01.878Z,1.70
2022-11-26T00:42:28.648Z,1.70
2022-11-26T00:44:55.432Z,1.60
2022-11-26T00:47:22.431Z,1.70
2022-11-26T00:49:49.295Z,1.80
2022-11-26T00:52:32.273Z,1.80
2022-11-26T00:54:59.429Z,1.80
2022-11-26T00:57:26.274Z,1.70
2022-11-26T00:59:53.088Z,1.80
2022-11-26T01:02:20.272Z,1.90
2022-11-26T01:04:47.445Z,1.90
2022-11-26T01:07:14.316Z,2.00
2022-11-26T01:09:44.613Z,2.00
2022-11-26T01:12:14.645Z,2.00
2022-11-26T01:14:41.441Z,2.10
2022-11-26T01:17:12.078Z,2.10
2022-11-26T01:19:38.896Z,2.10
2022-11-26T01:22:05.665Z,2.20
2022-11-26T01:24:32.871Z,2.30
2022-11-26T01:26:59.657Z,2.20
2022-11-26T01:29:26.627Z,2.20
2022-11-26T01:31:53.442Z,2.10
2022-11-26T01:34:20.294Z,2.20
2022-11-26T01:36:47.081Z,2.10
2022-11-26T01:39:17.162Z,2.10
2022-11-26T01:41:53.100Z,2.20
2022-11-26T01:44:23.490Z,2.20
2022-11-26T01:46:54.431Z,2.20
2022-11-26T01:49:27.404Z,2.20
2022-11-26T01:52:19.166Z,2.30
2022-11-26T01:54:47.428Z,2.20
2022-11-26T01:57:21.841Z,2.10
2022-11-26T01:59:56.529Z,2.00
2022-11-26T02:02:26.106Z,2.00
2022-11-26T02:05:03.157Z,2.00
2022-11-26T02:07:30.414Z,2.00
2022-11-26T02:09:57.347Z,2.00
2022-11-26T02:12:24.336Z,2.00
2022-11-26T02:14:51.197Z,2.00
2022-11-26T02:17:25.603Z,2.00
2022-11-26T02:20:14.329Z,2.00
2022-11-26T02:22:50.618Z,2.10
2022-11-26T02:25:37.307Z,2.10
2022-11-26T02:28:13.352Z,2.10
2022-11-26T02:30:44.835Z,2.10
2022-11-26T02:33:29.653Z,2.10
2022-11-26T02:36:01.608Z,2.10
2022-11-26T02:38:33.049Z,2.10
2022-11-26T02:41:19.368Z,2.10
2022-11-26T02:43:47.102Z,2.10
2022-11-26T02:46:18.591Z,2.00
2022-11-26T02:48:49.856Z,2.10
2022-11-26T02:51:24.129Z,2.00
2022-11-26T02:53:52.411Z,2.00
2022-11-26T02:56:29.088Z,1.90
2022-11-26T02:58:57.326Z,1.80
2022-11-26T03:01:40.344Z,1.90
2022-11-26T03:04:17.798Z,1.90
2022-11-26T03:06:45.484Z,1.90
2022-11-26T03:09:12.379Z,2.00
2022-11-26T03:11:39.164Z,2.00
2022-11-26T03:14:05.983Z,2.00
2022-11-26T03:16:32.986Z,2.00
2022-11-26T03:18:59.933Z,1.90
2022-11-26T03:21:26.867Z,1.90
2022-11-26T03:23:53.648Z,1.90
2022-11-26T03:26:20.475Z,1.90
2022-11-26T03:28:47.524Z,1.90
2022-11-26T03:31:14.548Z,1.90
2022-11-26T03:33:41.479Z,1.90
2022-11-26T03:36:08.554Z,2.00
2022-11-26T03:38:35.315Z,1.90
2022-11-26T03:41:03.975Z,1.90
2022-11-26T03:43:30.905Z,1.90
2022-11-26T03:45:57.829Z,2.00
2022-11-26T03:48:24.656Z,2.00
2022-11-26T03:50:51.467Z,2.00
2022-11-26T03:53:18.428Z,2.00
2022-11-26T03:55:45.248Z,1.90
2022-11-26T03:58:12.022Z,2.00
2022-11-26T04:00:38.837Z,2.00
2022-11-26T04:03:05.748Z,2.10
2022-11-26T04:05:32.720Z,2.00
2022-11-26T04:07:59.491Z,2.10
2022-11-26T04:10:26.321Z,2.20
2022-11-26T04:12:53.125Z,2.20
2022-11-26T04:15:19.903Z,2.10
2022-11-26T04:17:46.688Z,2.20
2022-11-26T04:20:13.625Z,2.20
2022-11-26T04:22:40.461Z,2.20
2022-11-26T04:25:07.710Z,2.20
2022-11-26T04:27:34.499Z,2.20
2022-11-26T04:30:01.421Z,2.20
2022-11-26T04:32:28.350Z,2.20
2022-11-26T04:34:55.125Z,2.30
2022-11-26T04:37:21.925Z,2.20
2022-11-26T04:39:48.776Z,2.20
2022-11-26T04:42:15.581Z,2.20
2022-11-26T04:44:42.477Z,2.20
2022-11-26T04:47:09.325Z,2.20
2022-11-26T04:49:36.162Z,2.20
2022-11-26T04:52:03.080Z,2.10
2022-11-26T04:54:29.892Z,2.10
2022-11-26T04:56:56.842Z,2.10
2022-11-26T04:59:23.826Z,2.00
2022-11-26T05:01:50.612Z,1.90
2022-11-26T05:04:17.445Z,1.70
2022-11-26T05:06:44.320Z,1.60
2022-11-26T05:09:11.184Z,1.60
2022-11-26T05:11:38.031Z,1.60
2022-11-26T05:14:04.966Z,1.50
2022-11-26T05:16:31.990Z,1.40
2022-11-26T05:18:58.995Z,1.30
2022-11-26T05:21:25.850Z,1.30
2022-11-26T05:23:52.631Z,1.20
2022-11-26T05:26:19.599Z,1.20
2022-11-26T05:28:46.404Z,1.10
2022-11-26T05:31:13.194Z,0.90
2022-11-26T05:33:40.065Z,0.70
2022-11-26T05:36:07.057Z,0.70
2022-11-26T05:38:33.948Z,0.60
2022-11-26T05:41:00.961Z,0.50
2022-11-26T05:43:27.964Z,0.80
2022-11-26T05:45:54.786Z,0.80
2022-11-26T05:48:21.588Z,0.90
2022-11-26T05:50:53.138Z,0.90
2022-11-26T05:53:21.362Z,0.60
2022-11-26T05:55:48.140Z,0.50
2022-11-26T05:58:14.899Z,0.50
2022-11-26T06:00:41.737Z,0.50
2022-11-26T06:03:08.709Z,0.50
2022-11-26T06:05:35.660Z,0.50
2022-11-26T06:08:02.819Z,0.50
2022-11-26T06:10:29.636Z,0.40
2022-11-26T06:12:56.673Z,0.40
2022-11-26T06:15:23.460Z,0.40
2022-11-26T06:17:50.549Z,0.40
2022-11-26T06:20:17.703Z,0.60
2022-11-26T06:22:44.484Z,0.80
2022-11-26T06:25:13.977Z,0.90
2022-11-26T06:27:41.500Z,1.00
2022-11-26T06:30:11.377Z,0.90
2022-11-26T06:32:38.249Z,0.70
2022-11-26T06:35:05.875Z,0.50
2022-11-26T06:37:33.385Z,0.30
2022-11-26T06:40:00.806Z,0.20
2022-11-26T06:42:27.811Z,0.30
2022-11-26T06:44:59.449Z,0.40
2022-11-26T06:47:26.938Z,0.50
2022-11-26T06:49:53.748Z,0.50
2022-11-26T06:52:20.516Z,0.40
2022-11-26T06:54:47.596Z,0.30
2022-11-26T06:57:14.368Z,0.30
2022-11-26T06:59:41.139Z,0.40
2022-11-26T07:02:10.168Z,0.50
2022-11-26T07:04:37.302Z,0.50
2022-11-26T07:07:04.371Z,0.50
2022-11-26T07:09:31.149Z,0.40
2022-11-26T07:11:58.828Z,0.40
2022-11-26T07:14:25.684Z,0.50
2022-11-26T07:16:52.567Z,0.70
2022-11-26T07:19:20.586Z,0.90
2022-11-26T07:21:47.405Z,1.10
2022-11-26T07:24:14.164Z,1.30
2022-11-26T07:26:40.939Z,1.40
2022-11-26T07:29:08.063Z,1.40
2022-11-26T07:31:36.212Z,1.30
2022-11-26T07:34:03.752Z,1.30
2022-11-26T07:36:31.216Z,1.40
2022-11-26T07:39:00.193Z,1.60
2022-11-26T07:41:28.654Z,1.70
2022-11-26T07:43:56.027Z,1.80
2022-11-26T07:46:25.402Z,1.80
2022-11-26T07:48:52.478Z,1.90
2022-11-26T07:51:26.170Z,1.90
2022-11-26T07:53:53.931Z,1.80
2022-11-26T07:56:20.811Z,1.80
2022-11-26T07:58:47.669Z,1.90
2022-11-26T08:01:23.718Z,1.90
2022-11-26T08:03:51.669Z,2.20
2022-11-26T08:06:20.766Z,2.40
2022-11-26T08:08:48.006Z,2.80
2022-11-26T08:11:26.471Z,2.60
2022-11-26T08:13:58.866Z,2.30
2022-11-26T08:16:28.639Z,2.10
2022-11-26T08:18:58.017Z,2.00
2022-11-26T08:21:25.500Z,2.00
2022-11-26T08:23:52.960Z,1.90
2022-11-26T08:26:29.342Z,1.90
2022-11-26T08:29:00.993Z,1.90
2022-11-26T08:31:28.534Z,1.90
2022-11-26T08:33:59.867Z,1.90
2022-11-26T08:36:28.357Z,1.80
2022-11-26T08:38:55.854Z,1.80
2022-11-26T08:41:23.200Z,1.90
2022-11-26T08:44:06.937Z,2.10
2022-11-26T08:46:39.916Z,2.20
2022-11-26T08:49:08.039Z,2.30
2022-11-26T08:51:35.054Z,2.50
2022-11-26T08:54:02.200Z,2.60
2022-11-26T08:56:29.706Z,2.70
2022-11-26T08:58:56.585Z,2.90
2022-11-26T09:01:32.437Z,3.10
2022-11-26T09:04:01.696Z,3.60
2022-11-26T09:06:30.717Z,3.80
2022-11-26T09:09:12.696Z,4.30
2022-11-26T09:11:49.107Z,5.20
2022-11-26T09:14:21.306Z,6.40
2022-11-26T09:16:48.399Z,6.90
2022-11-26T09:19:16.229Z,7.00
2022-11-26T09:21:43.660Z,7.40
2022-11-26T09:24:10.839Z,7.90
2022-11-26T09:26:38.153Z,8.30
2022-11-26T09:29:05.209Z,8.70
2022-11-26T09:31:32.368Z,8.60
2022-11-26T09:34:02.779Z,9.00
2022-11-26T09:36:30.295Z,9.30
2022-11-26T09:38:58.133Z,10.30
2022-11-26T09:41:31.798Z,10.20
2022-11-26T09:43:59.626Z,10.10
2022-11-26T09:46:51.015Z,10.30
2022-11-26T09:49:31.717Z,10.70
2022-11-26T09:51:59.631Z,11.20
2022-11-26T09:54:29.685Z,11.30
2022-11-26T09:57:12.786Z,11.30
2022-11-26T09:59:40.479Z,11.30
2022-11-26T10:02:12.975Z,11.20
2022-11-26T10:04:41.505Z,10.60
2022-11-26T10:07:36.781Z,10.30
2022-11-26T10:10:23.739Z,10.10
2022-11-26T10:13:19.475Z,9.70
2022-11-26T10:16:00.812Z,9.90
2022-11-26T10:19:24.513Z,9.90
2022-11-26T10:22:03.212Z,9.80
2022-11-26T10:24:31.970Z,10.10
2022-11-26T10:27:05.313Z,10.00
2022-11-26T10:29:39.447Z,9.20
2022-11-26T10:32:47.457Z,9.40
2022-11-26T10:35:20.089Z,9.50
2022-11-26T10:37:47.413Z,9.00
2022-11-26T10:40:26.245Z,8.80
2022-11-26T10:43:08.506Z,8.80
2022-11-26T10:45:37.033Z,9.40
2022-11-26T10:48:26.548Z,10.50
2022-11-26T10:51:15.994Z,10.80
2022-11-26T10:53:54.973Z,10.40
2022-11-26T10:56:36.061Z,10.30
2022-11-26T10:59:05.680Z,9.30
2022-11-26T11:01:39.945Z,9.50
2022-11-26T11:04:37.567Z,9.90
2022-11-26T11:07:08.736Z,9.80
2022-11-26T11:09:38.673Z,9.90
2022-11-26T11:12:17.926Z,9.40
2022-11-26T11:14:46.099Z,8.60
2022-11-26T11:17:29.407Z,8.80
2022-11-26T11:20:16.034Z,8.70
2022-11-26T11:22:46.992Z,8.60
2022-11-26T11:25:29.857Z,8.40
2022-11-26T11:28:19.899Z,8.40
2022-11-26T11:30:47.889Z,8.60
2022-11-26T11:33:24.836Z,8.50
2022-11-26T11:36:05.477Z,8.70
2022-11-26T11:38:49.790Z,9.30
2022-11-26T11:41:28.189Z,8.90
2022-11-26T11:44:20.484Z,8.70
2022-11-26T11:47:17.479Z,8.40
2022-11-26T11:50:11.599Z,8.10
2022-11-26T11:53:08.112Z,7.90
2022-11-26T11:56:02.066Z,7.90
2022-11-26T11:59:01.939Z,8.60
2022-11-26T12:02:01.845Z,9.50
2022-11-26T12:04:50.512Z,9.70
2022-11-26T12:07:42.290Z,10.60
2022-11-26T12:10:12.733Z,11.50
2022-11-26T12:13:00.314Z,11.50
2022-11-26T12:15:29.339Z,11.40
2022-11-26T12:18:18.011Z,11.60
2022-11-26T12:21:00.085Z,11.20
2022-11-26T12:23:32.990Z,11.60
2022-11-26T12:26:12.484Z,12.10
2022-11-26T12:28:53.659Z,12.60
2022-11-26T12:31:28.939Z,10.40
2022-11-26T12:34:22.365Z,10.40
2022-11-26T12:36:55.222Z,10.60
2022-11-26T12:39:53.187Z,11.10
2022-11-26T12:42:44.222Z,12.20
2022-11-26T12:45:20.166Z,12.90
2022-11-26T12:47:53.239Z,13.50
2022-11-26T12:50:26.430Z,13.60
2022-11-26T12:53:28.609Z,12.90
2022-11-26T12:56:28.638Z,12.20
2022-11-26T12:59:21.408Z,11.10
2022-11-26T13:01:48.528Z,10.20
2022-11-26T13:04:36.644Z,10.80
2022-11-26T13:07:13.904Z,11.40
2022-11-26T13:09:52.095Z,11.90
2022-11-26T13:12:31.045Z,11.90
2022-11-26T13:15:00.646Z,11.40
2022-11-26T13:17:44.576Z,11.10
2022-11-26T13:20:38.979Z,11.20
2022-11-26T13:23:11.951Z,12.00
2022-11-26T13:26:14.554Z,12.80
2022-11-26T13:28:50.662Z,13.30
2022-11-26T13:31:20.544Z,13.40
2022-11-26T13:34:21.552Z,13.40
2022-11-26T13:37:07.016Z,13.50
2022-11-26T13:39:33.731Z,13.00
2022-11-26T13:42:08.230Z,11.50
2022-11-26T13:44:41.092Z,11.10
2022-11-26T13:47:33.960Z,10.20
2022-11-26T13:50:17.168Z,10.50
2022-11-26T13:52:56.100Z,11.10
2022-11-26T13:55:57.679Z,10.10
2022-11-26T13:58:30.936Z,9.60
2022-11-26T14:01:37.199Z,9.60
2022-11-26T14:04:23.845Z,9.30
2022-11-26T14:07:18.962Z,9.20
2022-11-26T14:09:47.170Z,10.10
2022-11-26T14:12:15.071Z,10.50
2022-11-26T14:14:47.848Z,10.90
2022-11-26T14:17:23.051Z,11.10
2022-11-26T14:19:51.730Z,11.10
2022-11-26T14:22:21.453Z,10.70
2022-11-26T14:24:51.302Z,10.60
2022-11-26T14:27:23.475Z,10.90
2022-11-26T14:30:13.554Z,11.00
2022-11-26T14:32:45.966Z,11.30
2022-11-26T14:35:29.209Z,11.00
2022-11-26T14:38:00.844Z,10.80
2022-11-26T14:40:30.796Z,10.50
2022-11-26T14:43:19.573Z,10.20
2022-11-26T14:45:58.857Z,9.60
2022-11-26T14:48:30.248Z,8.80
2022-11-26T14:51:02.565Z,8.40
2022-11-26T14:53:32.301Z,7.90
2022-11-26T14:55:59.930Z,7.60
2022-11-26T14:58:35.759Z,7.30
2022-11-26T15:01:20.396Z,7.00
2022-11-26T15:04:42.691Z,6.70
2022-11-26T15:07:25.103Z,6.50
2022-11-26T15:10:04.049Z,6.20
2022-11-26T15:12:31.741Z,6.00
2022-11-26T15:15:01.374Z,5.80
2022-11-26T15:17:30.532Z,5.60
2022-11-26T15:20:01.932Z,5.40
2022-11-26T15:22:49.243Z,5.20
2022-11-26T15:25:22.128Z,5.00
2022-11-26T15:27:53.750Z,4.90
2022-11-26T15:30:32.779Z,4.70
2022-11-26T15:33:08.545Z,4.50
2022-11-26T15:35:36.469Z,4.50
2022-11-26T15:38:10.813Z,4.30
2022-11-26T15:40:58.627Z,4.20
2022-11-26T15:43:31.913Z,3.90
2022-11-26T15:46:10.872Z,3.70
2022-11-26T15:48:53.932Z,3.60
2022-11-26T15:51:35.409Z,3.40
2022-11-26T15:54:17.761Z,3.30
2022-11-26T15:56:51.573Z,3.20
2022-11-26T15:59:20.375Z,3.00
2022-11-26T16:01:47.959Z,3.00
2022-11-26T16:04:33.315Z,2.90
2022-11-26T16:07:10.303Z,2.80
2022-11-26T16:09:37.254Z,2.80
2022-11-26T16:12:04.207Z,2.70
2022-11-26T16:14:36.852Z,2.60
2022-11-26T16:17:12.359Z,2.40
2022-11-26T16:19:56.366Z,2.40
2022-11-26T16:22:28.673Z,2.40
2022-11-26T16:25:05.954Z,2.30
2022-11-26T16:27:33.790Z,2.20
2022-11-26T16:30:15.045Z,2.10
2022-11-26T16:32:41.846Z,2.00
2022-11-26T16:35:37.393Z,1.90
2022-11-26T16:37:55.815Z,1.80
2022-11-26T16:40:22.964Z,1.80
2022-11-26T16:42:50.253Z,1.70
2022-11-26T16:45:18.164Z,1.90
2022-11-26T16:47:55.879Z,1.90
2022-11-26T16:50:27.627Z,1.90
2022-11-26T16:52:55.386Z,2.00
2022-11-26T16:55:26.504Z,1.90
2022-11-26T16:57:59.956Z,1.80
2022-11-26T17:00:27.749Z,1.80
2022-11-26T17:02:54.764Z,1.60
2022-11-26T17:05:22.631Z,1.60
2022-11-26T17:07:53.569Z,1.50
2022-11-26T17:10:23.976Z,1.50
2022-11-26T17:12:51.084Z,1.50
2022-11-26T17:15:18.152Z,1.50
2022-11-26T17:17:45.366Z,1.60
2022-11-26T17:20:25.502Z,1.60
2022-11-26T17:22:53.116Z,1.40
2022-11-26T17:25:20.271Z,1.30
2022-11-26T17:27:47.115Z,1.20
2022-11-26T17:30:19.948Z,1.10
2022-11-26T17:32:47.119Z,1.00
2022-11-26T17:35:14.296Z,1.00
2022-11-26T17:37:41.578Z,0.90
2022-11-26T17:40:19.544Z,0.90
2022-11-26T17:42:46.738Z,0.90
2022-11-26T17:45:14.492Z,0.80
2022-11-26T17:47:42.156Z,0.70
2022-11-26T17:50:18.449Z,0.60
2022-11-26T17:52:46.305Z,0.70
2022-11-26T17:55:13.659Z,0.60
2022-11-26T17:57:40.487Z,0.60
2022-11-26T18:00:08.917Z,0.50
2022-11-26T18:02:35.810Z,0.40
2022-11-26T18:05:02.817Z,0.40
2022-11-26T18:07:29.605Z,0.30
2022-11-26T18:09:57.413Z,0.30
2022-11-26T18:12:26.257Z,0.40
2022-11-26T18:14:54.925Z,0.40
2022-11-26T18:17:22.416Z,0.30
2022-11-26T18:19:49.772Z,0.30
2022-11-26T18:22:21.573Z,0.20
2022-11-26T18:24:56.558Z,0.20
2022-11-26T18:27:30.536Z,0.20
2022-11-26T18:29:57.702Z,0.10
2022-11-26T18:32:24.577Z,0.10
2022-11-26T18:34:51.445Z,0.10
2022-11-26T18:37:18.892Z,0.10
2022-11-26T18:39:45.721Z,0.00
2022-11-26T18:45:00.567Z,0.10
2022-11-26T18:47:27.435Z,0.00
2022-11-26T18:49:54.497Z,0.00
2022-11-26T18:52:21.263Z,0.00
2022-11-26T18:54:47.994Z,0.10
2022-11-26T18:57:14.783Z,0.20
2022-11-26T18:59:41.948Z,0.20
2022-11-26T19:02:10.737Z,0.40
2022-11-26T19:04:39.702Z,0.40
2022-11-26T19:07:06.699Z,0.20
2022-11-26T19:09:33.531Z,0.30
2022-11-26T19:12:00.393Z,0.50
2022-11-26T19:14:27.226Z,0.40
2022-11-26T19:16:54.154Z,0.40
2022-11-26T19:19:21.603Z,0.40
2022-11-26T19:21:50.342Z,0.40
2022-11-26T19:24:17.121Z,0.50
2022-11-26T19:26:44.142Z,0.50
2022-11-26T19:29:12.459Z,0.60
2022-11-26T19:31:40.093Z,0.50
2022-11-26T19:34:12.230Z,0.50
2022-11-26T19:36:39.256Z,0.50
2022-11-26T19:39:07.246Z,0.50
2022-11-26T19:41:34.625Z,0.40
2022-11-26T19:44:03.553Z,0.40
2022-11-26T19:46:32.121Z,0.30
2022-11-26T19:48:58.903Z,0.20
2022-11-26T19:51:27.696Z,0.10
2022-11-26T19:53:55.959Z,0.10
2022-11-26T19:56:28.373Z,0.10
2022-11-26T19:58:58.284Z,0.00
2022-11-26T20:01:27.404Z,-0.10
2022-11-26T20:03:54.613Z,-0.20
2022-11-26T20:06:26.271Z,-0.20
2022-11-26T20:08:53.707Z,-0.20
2022-11-26T20:11:20.817Z,-0.20
2022-11-26T20:13:49.305Z,0.10
2022-11-26T20:16:31.017Z,0.10
2022-11-26T20:18:58.685Z,-0.10
2022-11-26T20:21:27.756Z,-0.20
2022-11-26T20:23:57.829Z,-0.30
2022-11-26T20:26:31.943Z,-0.40
2022-11-26T20:29:08.040Z,-0.40
2022-11-26T20:31:38.850Z,-0.30
2022-11-26T20:34:05.615Z,-0.40
2022-11-26T20:36:32.444Z,-0.40
2022-11-26T20:39:02.080Z,-0.50
2022-11-26T20:41:29.694Z,-0.50
2022-11-26T20:43:59.286Z,-0.50
2022-11-26T20:46:27.875Z,-0.60
2022-11-26T20:48:55.335Z,-0.60
2022-11-26T20:51:22.944Z,-0.40
2022-11-26T20:53:50.961Z,-0.30
2022-11-26T20:56:22.033Z,-0.40
2022-11-26T20:58:50.477Z,-0.50
2022-11-26T21:01:20.237Z,-0.60
2022-11-26T21:03:48.196Z,-0.50
2022-11-26T21:06:17.204Z,-0.60
2022-11-26T21:08:44.260Z,-0.60
2022-11-26T21:11:12.737Z,-0.70
2022-11-26T21:13:39.883Z,-0.80
2022-11-26T21:16:10.728Z,-0.90
2022-11-26T21:18:37.966Z,-1.00
2022-11-26T21:21:12.899Z,-1.10
2022-11-26T21:23:41.418Z,-1.10
2022-11-26T21:26:15.171Z,-1.00
2022-11-26T21:28:41.955Z,-1.10
2022-11-26T21:31:13.856Z,-1.10
2022-11-26T21:33:40.795Z,-1.20
2022-11-26T21:36:12.339Z,-1.30
2022-11-26T21:38:39.260Z,-1.30
2022-11-26T21:41:12.487Z,-1.50
2022-11-26T21:43:40.961Z,-1.50
2022-11-26T21:46:12.075Z,-1.50
2022-11-26T21:48:38.984Z,-1.50
2022-11-26T21:51:12.194Z,-1.50
2022-11-26T21:53:38.959Z,-1.50
2022-11-26T21:56:12.228Z,-1.50
2022-11-26T21:58:39.753Z,-1.50
2022-11-26T22:01:29.472Z,-1.60
2022-11-26T22:03:59.486Z,-1.40
2022-11-26T22:06:27.236Z,-1.30
2022-11-26T22:08:54.256Z,-1.30
2022-11-26T22:11:27.000Z,-1.30
2022-11-26T22:13:54.539Z,-1.40
2022-11-26T22:16:22.942Z,-1.50
2022-11-26T22:18:50.579Z,-1.60
2022-11-26T22:21:31.357Z,-1.70
2022-11-26T22:23:59.487Z,-1.60
2022-11-26T22:26:27.724Z,-1.60
2022-11-26T22:28:55.733Z,-1.60
2022-11-26T22:31:23.716Z,-1.40
2022-11-26T22:33:54.643Z,-1.10
2022-11-26T22:36:22.194Z,-1.00
2022-11-26T22:38:48.989Z,-1.00
2022-11-26T22:41:16.055Z,-1.00
2022-11-26T22:43:43.479Z,-1.00
2022-11-26T22:46:13.462Z,-1.00
2022-11-26T22:48:41.277Z,-0.90
2022-11-26T22:51:09.217Z,-1.00
2022-11-26T22:53:36.998Z,-1.10
2022-11-26T22:56:04.339Z,-1.20
2022-11-26T22:58:33.057Z,-1.30
2022-11-26T23:01:05.741Z,-1.40
2022-11-26T23:03:35.155Z,-1.60
2022-11-26T23:06:07.874Z,-1.60
2022-11-26T23:08:35.830Z,-1.70
2022-11-26T23:11:19.242Z,-1.70
2022-11-26T23:13:48.287Z,-1.90
2022-11-26T23:16:15.771Z,-1.80
2022-11-26T23:18:42.685Z,-1.80
2022-11-26T23:21:16.852Z,-1.70
2022-11-26T23:23:44.617Z,-1.70
2022-11-26T23:26:14.416Z,-1.70
2022-11-26T23:28:41.920Z,-1.70
2022-11-26T23:31:16.019Z,-1.90
2022-11-26T23:33:42.871Z,-1.90
2022-11-26T23:36:10.266Z,-1.90
2022-11-26T23:38:37.441Z,-2.00
2022-11-26T23:41:05.837Z,-2.20
2022-11-26T23:43:35.117Z,-2.10
2022-11-26T23:46:04.497Z,-2.20
2022-11-26T23:48:32.533Z,-2.20
2022-11-26T23:51:00.048Z,-2.20
2022-11-26T23:53:27.488Z,-2.30
2022-11-26T23:55:54.379Z,-2.20
2022-11-26T23:58:21.298Z,-2.10
